createdAt,value
2023-01-02T00:00:23.232Z,0
2023-01-02T00:02:29.925Z,0
2023-01-02T00:04:36.984Z,0
2023-01-02T00:05:39.879Z,0
2023-01-02T00:07:46.357Z,0
2023-01-02T00:09:52.201Z,0
2023-01-02T00:10:55.370Z,0
2023-01-02T00:11:59.383Z,0
2023-01-02T00:13:02.252Z,0
2023-01-02T00:15:08.877Z,0
2023-01-02T00:16:13.720Z,0
2023-01-02T00:17:16.970Z,0
2023-01-02T00:18:19.770Z,0
2023-01-02T00:20:26.768Z,0
2023-01-02T00:22:32.392Z,0
2023-01-02T00:24:38.638Z,0
2023-01-02T00:25:42.335Z,0
2023-01-02T00:27:48.209Z,0
2023-01-02T00:29:54.607Z,0
2023-01-02T00:32:02.385Z,0
2023-01-02T00:33:06.226Z,0
2023-01-02T00:35:12.188Z,0
2023-01-02T00:36:30.949Z,0
2023-01-02T00:37:34.292Z,0
2023-01-02T00:39:43.208Z,0
2023-01-02T00:41:49.377Z,0
2023-01-02T00:42:52.183Z,0
2023-01-02T00:44:57.675Z,0
2023-01-02T00:46:12.307Z,0
2023-01-02T00:47:16.704Z,0
2023-01-02T00:49:23.041Z,0
2023-01-02T00:50:25.801Z,0
2023-01-02T00:51:29.559Z,0
2023-01-02T00:52:33.352Z,0
2023-01-02T00:54:38.885Z,0
2023-01-02T00:55:41.928Z,0
2023-01-02T00:56:45.336Z,0
2023-01-02T00:57:48.163Z,0
2023-01-02T00:59:54.678Z,0
2023-01-02T01:00:58.427Z,0
2023-01-02T01:02:02.502Z,0
2023-01-02T01:03:06.838Z,0
2023-01-02T01:05:13.775Z,0
2023-01-02T01:07:19.280Z,0
2023-01-02T01:08:22.117Z,0
2023-01-02T01:10:28.301Z,0
2023-01-02T01:12:34.362Z,0
2023-01-02T01:14:41.624Z,0
2023-01-02T01:15:45.052Z,0
2023-01-02T01:17:51.569Z,0
2023-01-02T01:19:58.466Z,0
2023-01-02T01:21:01.572Z,0
2023-01-02T01:23:07.734Z,0
2023-01-02T01:25:13.835Z,0
2023-01-02T01:27:20.376Z,0
2023-01-02T01:28:23.747Z,0
2023-01-02T01:30:29.575Z,0
2023-01-02T01:32:35.735Z,0
2023-01-02T01:33:39.141Z,0
2023-01-02T01:34:43.359Z,0
2023-01-02T01:35:45.840Z,0
2023-01-02T01:37:52.282Z,0
2023-01-02T01:39:59.567Z,0
2023-01-02T01:41:02.907Z,0
2023-01-02T01:43:09.480Z,0
2023-01-02T01:45:15.060Z,0
2023-01-02T01:46:18.291Z,0
2023-01-02T01:48:24.624Z,0
2023-01-02T01:50:31.974Z,0
2023-01-02T01:51:35.399Z,0
2023-01-02T01:53:41.551Z,0
2023-01-02T01:54:44.824Z,0
2023-01-02T01:55:47.860Z,0
2023-01-02T01:56:50.717Z,0
2023-01-02T01:58:57.505Z,0
2023-01-02T02:00:00.786Z,0
2023-01-02T02:02:09.055Z,0
2023-01-02T02:04:16.486Z,0
2023-01-02T02:05:19.667Z,0
2023-01-02T02:06:23.447Z,0
2023-01-02T02:07:26.550Z,0
2023-01-02T02:09:32.381Z,0
2023-01-02T02:10:36.193Z,0
2023-01-02T02:12:41.783Z,0
2023-01-02T02:14:47.665Z,0
2023-01-02T02:16:54.523Z,0
2023-01-02T02:17:57.625Z,0
2023-01-02T02:20:04.444Z,0
2023-01-02T02:21:08.268Z,0
2023-01-02T02:23:15.449Z,0
2023-01-02T02:24:18.772Z,0
2023-01-02T02:25:21.486Z,0
2023-01-02T02:26:25.493Z,0
2023-01-02T02:27:28.883Z,0
2023-01-02T02:28:32.538Z,0
2023-01-02T02:29:36.008Z,0
2023-01-02T02:31:42.050Z,0
2023-01-02T02:32:45.440Z,0
2023-01-02T02:34:52.072Z,0
2023-01-02T02:36:58.688Z,0
2023-01-02T02:38:02.606Z,0
2023-01-02T02:40:08.641Z,0
2023-01-02T02:41:12.063Z,0
2023-01-02T02:43:17.614Z,0
2023-01-02T02:44:20.686Z,0
2023-01-02T02:45:24.097Z,0
2023-01-02T02:46:26.410Z,0
2023-01-02T02:48:33.257Z,0
2023-01-02T02:49:36.235Z,0
2023-01-02T02:51:42.146Z,0
2023-01-02T02:52:45.410Z,0
2023-01-02T02:53:49.466Z,0
2023-01-02T02:54:52.518Z,0
2023-01-02T02:56:58.304Z,0
2023-01-02T02:58:01.382Z,0
2023-01-02T03:00:07.104Z,0
2023-01-02T03:02:14.386Z,0
2023-01-02T03:03:18.503Z,0
2023-01-02T03:04:21.522Z,0
2023-01-02T03:05:24.023Z,0
2023-01-02T03:06:27.009Z,0
2023-01-02T03:08:35.362Z,0
2023-01-02T03:10:42.538Z,0
2023-01-02T03:11:46.017Z,0
2023-01-02T03:13:51.834Z,0
2023-01-02T03:14:54.942Z,0
2023-01-02T03:17:01.595Z,0
2023-01-02T03:19:07.914Z,0
2023-01-02T03:20:11.317Z,0
2023-01-02T03:21:14.343Z,0
2023-01-02T03:22:17.728Z,0
2023-01-02T03:24:24.547Z,0
2023-01-02T03:25:28.252Z,0
2023-01-02T03:27:33.807Z,0
2023-01-02T03:29:39.234Z,0
2023-01-02T03:31:45.654Z,0
2023-01-02T03:32:48.949Z,0
2023-01-02T03:34:55.220Z,0
2023-01-02T03:37:01.586Z,0
2023-01-02T03:38:04.455Z,0
2023-01-02T03:40:09.670Z,0
2023-01-02T03:42:16.895Z,0
2023-01-02T03:43:19.733Z,0
2023-01-02T03:45:26.542Z,0
2023-01-02T03:47:32.532Z,0
2023-01-02T03:48:35.621Z,0
2023-01-02T03:50:41.699Z,0
2023-01-02T03:52:47.779Z,0
2023-01-02T03:54:53.831Z,0
2023-01-02T03:55:57.934Z,0
2023-01-02T03:58:05.038Z,0
2023-01-02T04:00:10.852Z,0
2023-01-02T04:01:15.097Z,0
2023-01-02T04:03:23.552Z,0
2023-01-02T04:05:30.135Z,0
2023-01-02T04:06:33.024Z,0
2023-01-02T04:08:39.465Z,0
2023-01-02T04:10:45.162Z,0
2023-01-02T04:11:48.209Z,0
2023-01-02T04:12:52.292Z,0
2023-01-02T04:13:55.038Z,0
2023-01-02T04:16:01.126Z,0
2023-01-02T04:17:04.441Z,0
2023-01-02T04:19:10.916Z,0
2023-01-02T04:21:16.833Z,0
2023-01-02T04:22:19.907Z,0
2023-01-02T04:24:25.678Z,0
2023-01-02T04:26:31.469Z,0
2023-01-02T04:27:34.375Z,0
2023-01-02T04:28:38.174Z,0
2023-01-02T04:29:41.314Z,0
2023-01-02T04:31:48.136Z,0
2023-01-02T04:32:51.157Z,0
2023-01-02T04:34:56.924Z,0
2023-01-02T04:37:04.011Z,0
2023-01-02T04:39:10.753Z,0
2023-01-02T04:40:13.821Z,0
2023-01-02T04:42:19.713Z,0
2023-01-02T04:44:26.877Z,0
2023-01-02T04:46:33.054Z,0
2023-01-02T04:47:35.809Z,0
2023-01-02T04:49:42.622Z,0
2023-01-02T04:51:49.340Z,0
2023-01-02T04:53:54.440Z,0
2023-01-02T04:54:57.496Z,0
2023-01-02T04:57:03.321Z,0
2023-01-02T04:59:09.230Z,0
2023-01-02T05:01:17.883Z,0
2023-01-02T05:02:21.952Z,0
2023-01-02T05:04:28.115Z,0
2023-01-02T05:06:34.048Z,0
2023-01-02T05:08:39.934Z,0
2023-01-02T05:09:43.676Z,0
2023-01-02T05:11:49.548Z,0
2023-01-02T05:13:55.635Z,0
2023-01-02T05:16:03.404Z,0
2023-01-02T05:17:07.091Z,0
2023-01-02T05:19:13.377Z,0
2023-01-02T05:21:19.323Z,0
2023-01-02T05:23:24.824Z,0
2023-01-02T05:24:28.259Z,0
2023-01-02T05:26:34.893Z,0
2023-01-02T05:28:40.852Z,0
2023-01-02T05:30:46.180Z,0
2023-01-02T05:31:50.108Z,0
2023-01-02T05:33:56.141Z,0
2023-01-02T05:36:02.340Z,0
2023-01-02T05:38:07.908Z,0
2023-01-02T05:39:10.416Z,0
2023-01-02T05:41:16.964Z,0
2023-01-02T05:43:23.513Z,0
2023-01-02T05:45:29.294Z,0
2023-01-02T05:46:33.074Z,0
2023-01-02T05:48:40.521Z,0
2023-01-02T05:50:47.043Z,0
2023-01-02T05:52:53.221Z,0
2023-01-02T05:53:56.608Z,0
2023-01-02T05:54:59.909Z,0
2023-01-02T05:56:02.890Z,0
2023-01-02T05:58:09.133Z,0
2023-01-02T06:00:15.784Z,0
2023-01-02T06:01:18.910Z,0
2023-01-02T06:03:27.625Z,0
2023-01-02T06:05:33.572Z,0
2023-01-02T06:06:35.756Z,0
2023-01-02T06:07:39.141Z,0
2023-01-02T06:08:42.543Z,0
2023-01-02T06:10:47.915Z,0
2023-01-02T06:11:51.274Z,0
2023-01-02T06:12:54.659Z,0
2023-01-02T06:13:58.015Z,0
2023-01-02T06:16:04.078Z,0
2023-01-02T06:18:11.053Z,0
2023-01-02T06:19:14.810Z,0
2023-01-02T06:21:20.371Z,0
2023-01-02T06:23:26.393Z,0
2023-01-02T06:25:31.943Z,0
2023-01-02T06:26:37.100Z,0
2023-01-02T06:28:42.979Z,0
2023-01-02T06:30:48.239Z,0
2023-01-02T06:32:57.460Z,0
2023-01-02T06:34:00.626Z,0
2023-01-02T06:36:07.565Z,0
2023-01-02T06:38:15.835Z,0
2023-01-02T06:40:22.803Z,0
2023-01-02T06:41:25.847Z,0
2023-01-02T06:43:32.570Z,0
2023-01-02T06:45:38.701Z,0
2023-01-02T06:47:45.227Z,0
2023-01-02T06:48:48.696Z,0
2023-01-02T06:50:55.820Z,0
2023-01-02T06:53:01.301Z,0
2023-01-02T06:55:07.231Z,0
2023-01-02T06:56:11.022Z,0
2023-01-02T06:58:21.606Z,0
2023-01-02T07:00:26.938Z,0
2023-01-02T07:02:34.674Z,0
2023-01-02T07:03:37.210Z,0
2023-01-02T07:04:40.583Z,0
2023-01-02T07:05:43.117Z,0
2023-01-02T07:07:50.973Z,0
2023-01-02T07:08:54.100Z,0
2023-01-02T07:09:57.506Z,0
2023-01-02T07:11:00.946Z,0
2023-01-02T07:13:07.134Z,0
2023-01-02T07:14:10.217Z,0
2023-01-02T07:15:13.209Z,0
2023-01-02T07:16:17.482Z,0
2023-01-02T07:18:24.039Z,0
2023-01-02T07:20:30.183Z,0
2023-01-02T07:21:33.417Z,0
2023-01-02T07:23:40.927Z,0
2023-01-02T07:25:46.979Z,0
2023-01-02T07:27:52.745Z,0
2023-01-02T07:28:55.735Z,0
2023-01-02T07:31:01.581Z,0
2023-01-02T07:33:08.778Z,0
2023-01-02T07:35:14.464Z,0
2023-01-02T07:36:17.294Z,1
2023-01-02T07:38:23.723Z,1
2023-01-02T07:40:34.347Z,1
2023-01-02T07:41:37.666Z,2
2023-01-02T07:42:41.047Z,2
2023-01-02T07:43:44.375Z,2
2023-01-02T07:45:53.386Z,2
2023-01-02T07:48:00.221Z,4
2023-01-02T07:50:06.566Z,3
2023-01-02T07:51:09.995Z,3
2023-01-02T07:52:13.117Z,4
2023-01-02T07:53:16.228Z,5
2023-01-02T07:55:23.661Z,5
2023-01-02T07:56:26.554Z,6
2023-01-02T07:57:30.204Z,6
2023-01-02T07:58:33.114Z,7
2023-01-02T08:00:39.729Z,7
2023-01-02T08:01:43.709Z,7
2023-01-02T08:02:47.146Z,8
2023-01-02T08:03:50.697Z,8
2023-01-02T08:05:56.231Z,9
2023-01-02T08:08:01.974Z,10
2023-01-02T08:09:05.613Z,10
2023-01-02T08:11:12.860Z,11
2023-01-02T08:13:18.703Z,13
2023-01-02T08:15:29.393Z,14
2023-01-02T08:16:33.104Z,15
2023-01-02T08:18:39.261Z,15
2023-01-02T08:20:45.799Z,16
2023-01-02T08:22:51.554Z,17
2023-01-02T08:23:54.421Z,17
2023-01-02T08:26:02.660Z,18
2023-01-02T08:28:08.828Z,15
2023-01-02T08:30:15.347Z,15
2023-01-02T08:31:20.317Z,13
2023-01-02T08:33:26.650Z,11
2023-01-02T08:35:40.724Z,9
2023-01-02T08:37:53.081Z,8
2023-01-02T08:39:59.197Z,8
2023-01-02T08:41:02.284Z,8
2023-01-02T08:43:09.032Z,8
2023-01-02T08:45:16.108Z,9
2023-01-02T08:46:19.610Z,11
2023-01-02T08:48:25.579Z,10
2023-01-02T08:50:31.522Z,11
2023-01-02T08:52:37.703Z,13
2023-01-02T08:53:40.795Z,15
2023-01-02T08:55:46.305Z,17
2023-01-02T08:57:53.361Z,14
2023-01-02T08:58:56.721Z,13
2023-01-02T09:01:03.371Z,12
2023-01-02T09:03:11.080Z,13
2023-01-02T09:05:18.607Z,12
2023-01-02T09:06:24.759Z,13
2023-01-02T09:08:31.743Z,18
2023-01-02T09:10:37.836Z,19
2023-01-02T09:11:41.847Z,18
2023-01-02T09:12:44.676Z,21
2023-01-02T09:13:48.925Z,25
2023-01-02T09:15:55.825Z,28
2023-01-02T09:18:02.989Z,30
2023-01-02T09:19:05.731Z,27
2023-01-02T09:21:12.601Z,22
2023-01-02T09:23:18.130Z,21
2023-01-02T09:25:27.059Z,21
2023-01-02T09:26:30.442Z,21
2023-01-02T09:28:37.357Z,22
2023-01-02T09:30:44.939Z,25
2023-01-02T09:32:51.540Z,26
2023-01-02T09:33:54.739Z,27
2023-01-02T09:36:01.421Z,30
2023-01-02T09:38:09.002Z,27
2023-01-02T09:40:15.670Z,26
2023-01-02T09:41:19.027Z,26
2023-01-02T09:43:26.094Z,27
2023-01-02T09:45:33.619Z,24
2023-01-02T09:46:37.139Z,25
2023-01-02T09:48:43.702Z,27
2023-01-02T09:50:49.031Z,27
2023-01-02T09:52:55.927Z,30
2023-01-02T09:53:59.608Z,28
2023-01-02T09:56:05.305Z,27
2023-01-02T09:57:08.083Z,26
2023-01-02T09:58:11.453Z,26
2023-01-02T09:59:15.605Z,27
2023-01-02T10:01:23.440Z,26
2023-01-02T10:02:26.960Z,26
2023-01-02T10:03:31.364Z,27
2023-01-02T10:04:34.415Z,26
2023-01-02T10:05:37.782Z,24
2023-01-02T10:06:40.326Z,24
2023-01-02T10:07:43.323Z,22
2023-01-02T10:08:47.004Z,17
2023-01-02T10:10:53.797Z,14
2023-01-02T10:13:00.703Z,12
2023-01-02T10:14:44.122Z,14
2023-01-02T10:15:48.894Z,20
2023-01-02T10:16:52.866Z,17
2023-01-02T10:18:58.998Z,19
2023-01-02T10:21:05.843Z,24
2023-01-02T10:22:09.160Z,20
2023-01-02T10:24:15.008Z,19
2023-01-02T10:26:19.500Z,25
2023-01-02T10:27:22.599Z,20
2023-01-02T10:29:29.087Z,28
2023-01-02T10:31:35.438Z,52
2023-01-02T10:32:39.306Z,65
2023-01-02T10:33:42.684Z,68
2023-01-02T10:34:45.752Z,70
2023-01-02T10:36:51.900Z,85
2023-01-02T10:37:54.788Z,88
2023-01-02T10:40:01.977Z,96
2023-01-02T10:42:09.425Z,87
2023-01-02T10:44:15.612Z,53
2023-01-02T10:45:18.458Z,44
2023-01-02T10:47:26.626Z,39
2023-01-02T10:49:34.241Z,21
2023-01-02T10:51:40.697Z,17
2023-01-02T10:52:43.683Z,19
2023-01-02T10:55:02.343Z,17
2023-01-02T10:57:08.835Z,20
2023-01-02T10:58:11.781Z,21
2023-01-02T10:59:15.135Z,19
2023-01-02T11:00:29.484Z,19
2023-01-02T11:02:36.644Z,18
2023-01-02T11:04:44.011Z,24
2023-01-02T11:05:46.859Z,22
2023-01-02T11:07:53.425Z,28
2023-01-02T11:08:56.719Z,26
2023-01-02T11:11:03.165Z,31
2023-01-02T11:13:09.719Z,32
2023-01-02T11:14:13.143Z,31
2023-01-02T11:16:20.207Z,28
2023-01-02T11:18:26.799Z,29
2023-01-02T11:19:32.451Z,25
2023-01-02T11:21:38.418Z,24
2023-01-02T11:23:43.150Z,38
2023-01-02T11:24:46.198Z,35
2023-01-02T11:26:52.930Z,60
2023-01-02T11:28:58.392Z,60
2023-01-02T11:30:01.799Z,44
2023-01-02T11:32:09.708Z,27
2023-01-02T11:33:13.848Z,27
2023-01-02T11:34:17.899Z,19
2023-01-02T11:35:21.863Z,18
2023-01-02T11:37:29.010Z,17
2023-01-02T11:38:33.275Z,19
2023-01-02T11:40:38.930Z,20
2023-01-02T11:42:44.708Z,34
2023-01-02T11:43:48.420Z,35
2023-01-02T11:45:56.474Z,37
2023-01-02T11:48:03.143Z,45
2023-01-02T11:49:06.276Z,31
2023-01-02T11:51:19.306Z,40
2023-01-02T11:53:25.179Z,27
2023-01-02T11:55:32.025Z,27
2023-01-02T11:56:34.903Z,28
2023-01-02T11:58:41.943Z,26
2023-01-02T12:00:48.584Z,29
2023-01-02T12:01:52.300Z,34
2023-01-02T12:02:56.460Z,36
2023-01-02T12:04:00.336Z,36
2023-01-02T12:06:06.020Z,28
2023-01-02T12:07:10.067Z,40
2023-01-02T12:09:16.488Z,37
2023-01-02T12:10:20.032Z,34
2023-01-02T12:11:24.048Z,35
2023-01-02T12:12:26.877Z,36
2023-01-02T12:13:29.409Z,36
2023-01-02T12:15:35.745Z,33
2023-01-02T12:17:43.027Z,35
2023-01-02T12:18:46.123Z,34
2023-01-02T12:20:52.984Z,32
2023-01-02T12:23:00.658Z,30
2023-01-02T12:24:03.425Z,32
2023-01-02T12:26:12.120Z,46
2023-01-02T12:27:15.256Z,55
2023-01-02T12:29:50.602Z,61
2023-01-02T12:32:07.098Z,67
2023-01-02T12:33:10.252Z,81
2023-01-02T12:35:16.066Z,91
2023-01-02T12:37:22.499Z,89
2023-01-02T12:38:34.719Z,80
2023-01-02T12:40:42.129Z,55
2023-01-02T12:42:04.260Z,48
2023-01-02T12:43:07.985Z,41
2023-01-02T12:44:11.753Z,37
2023-01-02T12:46:18.660Z,25
2023-01-02T12:48:25.768Z,21
2023-01-02T12:49:29.180Z,19
2023-01-02T12:51:34.515Z,11
2023-01-02T12:52:38.428Z,12
2023-01-02T12:54:44.762Z,15
2023-01-02T12:55:47.932Z,17
2023-01-02T12:57:54.118Z,30
2023-01-02T13:00:00.332Z,27
2023-01-02T13:01:04.443Z,27
2023-01-02T13:03:23.487Z,22
2023-01-02T13:05:29.573Z,17
2023-01-02T13:06:48.897Z,18
2023-01-02T13:07:52.068Z,17
2023-01-02T13:08:55.222Z,16
2023-01-02T13:11:01.363Z,13
2023-01-02T13:12:04.430Z,11
2023-01-02T13:13:08.173Z,12
2023-01-02T13:14:11.560Z,14
2023-01-02T13:15:14.623Z,13
2023-01-02T13:16:27.994Z,10
2023-01-02T13:17:31.458Z,9
2023-01-02T13:19:37.159Z,15
2023-01-02T13:20:40.897Z,22
2023-01-02T13:22:57.787Z,25
2023-01-02T13:25:05.235Z,28
2023-01-02T13:26:08.615Z,24
2023-01-02T13:28:15.174Z,28
2023-01-02T13:29:18.887Z,21
2023-01-02T13:30:22.863Z,24
2023-01-02T13:31:50.672Z,25
2023-01-02T13:33:58.185Z,26
2023-01-02T13:36:04.157Z,31
2023-01-02T13:38:12.004Z,23
2023-01-02T13:39:16.213Z,25
2023-01-02T13:41:21.698Z,27
2023-01-02T13:42:24.572Z,26
2023-01-02T13:44:32.028Z,39
2023-01-02T13:47:06.536Z,52
2023-01-02T13:49:12.923Z,36
2023-01-02T13:50:15.653Z,31
2023-01-02T13:52:22.082Z,29
2023-01-02T13:54:29.607Z,32
2023-01-02T13:55:33.735Z,33
2023-01-02T13:56:37.045Z,33
2023-01-02T13:57:40.691Z,32
2023-01-02T13:59:48.756Z,31
2023-01-02T14:00:57.963Z,25
2023-01-02T14:02:02.758Z,19
2023-01-02T14:03:06.396Z,13
2023-01-02T14:04:09.469Z,11
2023-01-02T14:05:12.589Z,8
2023-01-02T14:06:14.803Z,8
2023-01-02T14:07:17.859Z,7
2023-01-02T14:09:24.638Z,5
2023-01-02T14:11:59.137Z,4
2023-01-02T14:14:05.547Z,6
2023-01-02T14:15:09.174Z,8
2023-01-02T14:17:15.522Z,9
2023-01-02T14:19:21.328Z,10
2023-01-02T14:20:25.318Z,9
2023-01-02T14:22:30.520Z,9
2023-01-02T14:24:36.465Z,6
2023-01-02T14:25:40.531Z,4
2023-01-02T14:27:47.076Z,3
2023-01-02T14:29:56.144Z,3
2023-01-02T14:32:02.908Z,2
2023-01-02T14:33:06.005Z,2
2023-01-02T14:35:12.464Z,2
2023-01-02T14:37:18.836Z,5
2023-01-02T14:38:22.204Z,6
2023-01-02T14:40:27.661Z,3
2023-01-02T14:42:34.564Z,2
2023-01-02T14:44:41.023Z,3
2023-01-02T14:45:45.038Z,2
2023-01-02T14:47:50.597Z,2
2023-01-02T14:48:53.956Z,2
2023-01-02T14:49:56.687Z,1
2023-01-02T14:50:59.672Z,2
2023-01-02T14:52:03.111Z,2
2023-01-02T14:53:06.487Z,2
2023-01-02T14:54:09.591Z,2
2023-01-02T14:56:16.211Z,1
2023-01-02T14:57:19.997Z,1
2023-01-02T14:59:26.329Z,0
2023-01-02T15:01:47.501Z,0
2023-01-02T15:02:51.857Z,0
2023-01-02T15:04:59.534Z,0
2023-01-02T15:07:12.128Z,0
2023-01-02T15:09:18.083Z,0
2023-01-02T15:10:21.510Z,0
2023-01-02T15:12:28.669Z,0
2023-01-02T15:14:06.293Z,0
2023-01-02T15:15:09.809Z,0
2023-01-02T15:17:16.250Z,0
2023-01-02T15:18:19.679Z,0
2023-01-02T15:20:26.210Z,0
2023-01-02T15:22:32.980Z,0
2023-01-02T15:23:36.315Z,0
2023-01-02T15:25:43.345Z,0
2023-01-02T15:27:50.045Z,0
2023-01-02T15:28:53.703Z,0
2023-01-02T15:31:00.163Z,0
2023-01-02T15:33:07.643Z,0
2023-01-02T15:34:10.648Z,0
2023-01-02T15:36:17.521Z,0
2023-01-02T15:38:24.741Z,0
2023-01-02T15:39:28.211Z,0
2023-01-02T15:41:34.323Z,0
2023-01-02T15:43:41.816Z,0
2023-01-02T15:45:48.393Z,0
2023-01-02T15:46:52.047Z,0
2023-01-02T15:48:57.652Z,0
2023-01-02T15:51:03.818Z,0
2023-01-02T15:52:07.101Z,0
2023-01-02T15:54:13.325Z,0
2023-01-02T15:56:19.172Z,0
2023-01-02T15:57:22.522Z,0
2023-01-02T15:59:30.839Z,0
2023-01-02T16:01:38.017Z,0
2023-01-02T16:04:06.469Z,0
2023-01-02T16:05:10.142Z,0
2023-01-02T16:06:13.244Z,0
2023-01-02T16:07:16.895Z,0
2023-01-02T16:09:24.084Z,0
2023-01-02T16:10:27.200Z,0
2023-01-02T16:11:30.870Z,0
2023-01-02T16:12:34.218Z,0
2023-01-02T16:14:41.277Z,0
2023-01-02T16:15:44.260Z,0
2023-01-02T16:17:50.969Z,0
2023-01-02T16:20:01.629Z,0
2023-01-02T16:21:04.348Z,0
2023-01-02T16:23:10.830Z,0
2023-01-02T16:25:17.066Z,0
2023-01-02T16:26:20.462Z,0
2023-01-02T16:27:23.757Z,0
2023-01-02T16:28:39.160Z,0
2023-01-02T16:30:45.877Z,0
2023-01-02T16:31:49.414Z,0
2023-01-02T16:33:55.688Z,0
2023-01-02T16:36:03.545Z,0
2023-01-02T16:37:07.246Z,0
2023-01-02T16:39:13.985Z,0
2023-01-02T16:41:21.061Z,0
2023-01-02T16:42:24.719Z,0
2023-01-02T16:43:27.509Z,0
2023-01-02T16:44:30.987Z,0
2023-01-02T16:46:38.885Z,0
2023-01-02T16:48:45.188Z,0
2023-01-02T16:49:48.586Z,0
2023-01-02T16:51:55.390Z,0
2023-01-02T16:54:01.432Z,0
2023-01-02T16:55:04.454Z,0
2023-01-02T16:57:10.081Z,0
2023-01-02T16:59:16.659Z,0
2023-01-02T17:01:23.955Z,0
2023-01-02T17:02:29.085Z,0
2023-01-02T17:04:36.502Z,0
2023-01-02T17:06:43.261Z,0
2023-01-02T17:07:45.776Z,0
2023-01-02T17:09:52.916Z,0
2023-01-02T17:11:59.570Z,0
2023-01-02T17:14:05.926Z,0
2023-01-02T17:15:09.386Z,0
2023-01-02T17:16:13.230Z,0
2023-01-02T17:17:16.788Z,0
2023-01-02T17:19:23.731Z,0
2023-01-02T17:20:27.071Z,0
2023-01-02T17:21:35.245Z,0
2023-01-02T17:22:38.627Z,0
2023-01-02T17:24:46.409Z,0
2023-01-02T17:26:53.603Z,0
2023-01-02T17:27:57.053Z,0
2023-01-02T17:30:04.151Z,0
2023-01-02T17:32:11.195Z,0
2023-01-02T17:34:18.963Z,0
2023-01-02T17:35:22.230Z,0
2023-01-02T17:37:29.247Z,0
2023-01-02T17:39:35.811Z,0
2023-01-02T17:41:41.700Z,0
2023-01-02T17:42:44.970Z,0
2023-01-02T17:44:05.789Z,0
2023-01-02T17:45:08.801Z,0
2023-01-02T17:48:15.213Z,0
2023-01-02T17:49:28.203Z,0
2023-01-02T17:50:31.834Z,0
2023-01-02T17:51:35.559Z,0
2023-01-02T17:52:39.305Z,0
2023-01-02T17:54:57.679Z,0
2023-01-02T17:56:24.693Z,0
2023-01-02T17:57:28.708Z,0
2023-01-02T17:58:32.112Z,0
2023-01-02T18:00:38.533Z,0
2023-01-02T18:02:45.964Z,0
2023-01-02T18:04:57.546Z,0
2023-01-02T18:06:00.805Z,0
2023-01-02T18:07:04.105Z,0
2023-01-02T18:08:06.671Z,0
2023-01-02T18:10:33.962Z,0
2023-01-02T18:12:41.235Z,0
2023-01-02T18:13:44.627Z,0
2023-01-02T18:15:50.972Z,0
2023-01-02T18:17:57.329Z,0
2023-01-02T18:20:04.071Z,0
2023-01-02T18:21:07.919Z,0
2023-01-02T18:23:13.509Z,0
2023-01-02T18:25:20.005Z,0
2023-01-02T18:26:23.086Z,0
2023-01-02T18:27:26.455Z,0
2023-01-02T18:28:29.828Z,0
2023-01-02T18:30:36.488Z,0
2023-01-02T18:31:39.663Z,0
2023-01-02T18:33:45.513Z,0
2023-01-02T18:35:58.034Z,0
2023-01-02T18:37:03.073Z,0
2023-01-02T18:39:09.254Z,0
2023-01-02T18:41:15.155Z,0
2023-01-02T18:42:18.163Z,0
2023-01-02T18:44:24.628Z,0
2023-01-02T18:47:07.287Z,0
2023-01-02T18:49:14.069Z,0
2023-01-02T18:50:25.916Z,0
2023-01-02T18:51:29.281Z,0
2023-01-02T18:52:33.155Z,0
2023-01-02T18:54:39.074Z,0
2023-01-02T18:56:46.912Z,0
2023-01-02T18:57:50.293Z,0
2023-01-02T18:58:53.672Z,0
2023-01-02T18:59:57.237Z,0
2023-01-02T19:02:05.661Z,0
2023-01-02T19:03:09.320Z,0
2023-01-02T19:04:30.262Z,0
2023-01-02T19:05:33.961Z,0
2023-01-02T19:07:40.713Z,0
2023-01-02T19:09:47.569Z,0
2023-01-02T19:10:50.680Z,0
2023-01-02T19:11:54.171Z,0
2023-01-02T19:13:09.129Z,0
2023-01-02T19:15:15.718Z,0
2023-01-02T19:17:22.981Z,0
2023-01-02T19:18:25.998Z,0
2023-01-02T19:20:31.794Z,0
2023-01-02T19:22:38.671Z,0
2023-01-02T19:23:42.817Z,0
2023-01-02T19:25:49.395Z,0
2023-01-02T19:26:52.854Z,0
2023-01-02T19:27:55.866Z,0
2023-01-02T19:28:58.988Z,0
2023-01-02T19:31:05.677Z,0
2023-01-02T19:32:08.413Z,0
2023-01-02T19:34:14.316Z,0
2023-01-02T19:35:17.165Z,0
2023-01-02T19:37:24.203Z,0
2023-01-02T19:39:31.728Z,0
2023-01-02T19:41:37.760Z,0
2023-01-02T19:42:40.619Z,0
2023-01-02T19:44:46.213Z,0
2023-01-02T19:46:53.073Z,0
2023-01-02T19:48:59.194Z,0
2023-01-02T19:50:02.940Z,0
2023-01-02T19:52:08.662Z,0
2023-01-02T19:54:14.772Z,0
2023-01-02T19:56:21.559Z,0
2023-01-02T19:57:24.594Z,0
2023-01-02T19:59:29.916Z,0
2023-01-02T20:01:37.177Z,0
2023-01-02T20:03:44.542Z,0
2023-01-02T20:04:48.197Z,0
2023-01-02T20:06:54.181Z,0
2023-01-02T20:08:59.335Z,0
2023-01-02T20:11:06.359Z,0
2023-01-02T20:12:10.034Z,0
2023-01-02T20:14:16.327Z,0
2023-01-02T20:16:23.169Z,0
2023-01-02T20:18:30.077Z,0
2023-01-02T20:19:33.246Z,0
2023-01-02T20:21:39.417Z,0
2023-01-02T20:23:44.994Z,0
2023-01-02T20:25:51.197Z,0
2023-01-02T20:26:55.016Z,0
2023-01-02T20:29:01.788Z,0
2023-01-02T20:31:08.768Z,0
2023-01-02T20:33:15.440Z,0
2023-01-02T20:34:19.106Z,0
2023-01-02T20:36:25.341Z,0
2023-01-02T20:38:32.101Z,0
2023-01-02T20:40:38.567Z,0
2023-01-02T20:41:41.665Z,0
2023-01-02T20:42:45.572Z,0
2023-01-02T20:43:48.408Z,0
2023-01-02T20:45:55.602Z,0
2023-01-02T20:46:58.416Z,0
2023-01-02T20:48:01.799Z,0
2023-01-02T20:49:05.412Z,0
2023-01-02T20:51:12.569Z,0
2023-01-02T20:53:18.859Z,0
2023-01-02T20:54:21.867Z,0
2023-01-02T20:56:28.944Z,0
2023-01-02T20:58:36.879Z,0
2023-01-02T21:00:43.244Z,0
2023-01-02T21:01:47.446Z,0
2023-01-02T21:03:56.245Z,0
2023-01-02T21:06:03.367Z,0
2023-01-02T21:08:10.347Z,0
2023-01-02T21:09:13.721Z,0
2023-01-02T21:11:20.454Z,0
2023-01-02T21:13:26.367Z,0
2023-01-02T21:14:39.477Z,0
2023-01-02T21:15:42.965Z,0
2023-01-02T21:16:45.766Z,0
2023-01-02T21:17:49.225Z,0
2023-01-02T21:18:51.773Z,0
2023-01-02T21:20:57.954Z,0
2023-01-02T21:22:00.870Z,0
2023-01-02T21:23:04.583Z,0
2023-01-02T21:24:07.775Z,0
2023-01-02T21:26:13.405Z,0
2023-01-02T21:27:16.892Z,0
2023-01-02T21:28:20.707Z,0
2023-01-02T21:29:24.138Z,0
2023-01-02T21:31:31.936Z,0
2023-01-02T21:33:39.052Z,0
2023-01-02T21:34:41.865Z,0
2023-01-02T21:36:48.276Z,0
2023-01-02T21:38:54.687Z,0
2023-01-02T21:41:01.403Z,0
2023-01-02T21:42:04.498Z,0
2023-01-02T21:44:11.051Z,0
2023-01-02T21:46:19.109Z,0
2023-01-02T21:48:25.546Z,0
2023-01-02T21:49:28.293Z,0
2023-01-02T21:51:34.859Z,0
2023-01-02T21:53:41.100Z,0
2023-01-02T21:55:47.463Z,0
2023-01-02T21:56:50.979Z,0
2023-01-02T21:58:23.886Z,0
2023-01-02T21:59:27.634Z,0
2023-01-02T22:00:31.637Z,0
2023-01-02T22:01:36.880Z,0
2023-01-02T22:03:44.724Z,0
2023-01-02T22:05:50.866Z,0
2023-01-02T22:07:43.283Z,0
2023-01-02T22:08:47.263Z,0
2023-01-02T22:09:50.628Z,0
2023-01-02T22:10:53.700Z,0
2023-01-02T22:11:57.588Z,0
2023-01-02T22:14:03.627Z,0
2023-01-02T22:15:07.445Z,0
2023-01-02T22:16:10.983Z,0
2023-01-02T22:17:15.257Z,0
2023-01-02T22:19:21.967Z,0
2023-01-02T22:20:25.645Z,0
2023-01-02T22:21:28.386Z,0
2023-01-02T22:22:31.675Z,0
2023-01-02T22:24:46.730Z,0
2023-01-02T22:26:53.587Z,0
2023-01-02T22:27:56.919Z,0
2023-01-02T22:30:36.895Z,0
2023-01-02T22:31:40.393Z,0
2023-01-02T22:32:44.206Z,0
2023-01-02T22:34:50.571Z,0
2023-01-02T22:36:56.471Z,0
2023-01-02T22:39:30.831Z,0
2023-01-02T22:41:37.259Z,0
2023-01-02T22:43:07.217Z,0
2023-01-02T22:44:10.347Z,0
2023-01-02T22:45:13.723Z,0
2023-01-02T22:47:19.713Z,0
2023-01-02T22:49:26.491Z,0
2023-01-02T22:50:30.164Z,0
2023-01-02T22:52:09.407Z,0
2023-01-02T22:53:13.073Z,0
2023-01-02T22:55:19.638Z,0
2023-01-02T22:57:25.689Z,0
2023-01-02T22:59:32.215Z,0
2023-01-02T23:00:34.921Z,0
2023-01-02T23:02:40.831Z,0
2023-01-02T23:04:48.247Z,0
2023-01-02T23:07:26.597Z,0
2023-01-02T23:09:33.796Z,0
2023-01-02T23:10:37.481Z,0
2023-01-02T23:11:40.028Z,0
2023-01-02T23:12:43.381Z,0
2023-01-02T23:14:50.456Z,0
2023-01-02T23:16:56.380Z,0
2023-01-02T23:17:59.910Z,0
2023-01-02T23:20:07.445Z,0
2023-01-02T23:22:13.675Z,0
2023-01-02T23:24:19.821Z,0
2023-01-02T23:25:23.644Z,0
2023-01-02T23:27:29.575Z,0
2023-01-02T23:29:10.812Z,0
2023-01-02T23:30:13.479Z,0
2023-01-02T23:32:20.297Z,0
2023-01-02T23:34:27.604Z,0
2023-01-02T23:36:33.914Z,0
2023-01-02T23:37:37.550Z,0
2023-01-02T23:39:43.866Z,0
2023-01-02T23:41:50.078Z,0
2023-01-02T23:43:56.505Z,0
2023-01-02T23:45:00.610Z,0
2023-01-02T23:47:21.037Z,0
2023-01-02T23:49:26.976Z,0
2023-01-02T23:51:33.771Z,0
2023-01-02T23:53:40.669Z,0
2023-01-02T23:54:44.671Z,0
2023-01-02T23:56:51.513Z,0
2023-01-02T23:58:57.402Z,0
